LGKR/CFU METAR and TAF weather

Enter ICAO airport designator
Station Type Date Time Source
LGKR METAR 2020/07/11 04:20 UTC NOAA

LGKR 110420Z /////KT CAVOK 21/14 Q1013 NOSIG


Station Type Date Time Source
LGKR Decoded METAR 2020/07/11 04:20 UTC NOAA

Kerkyra Airport , Greece (LGKR) 39-37N 019-55E 4M
Jul 11, 2020 - 12:20 AM EDT / 2020.07.11 0420 UTC
Visibility: greater than 7 mile(s):0
Temperature: 69 F (21 C)
Dew Point: 57 F (14 C)
Relative Humidity: 64%
Pressure (altimeter): 29.91 in. Hg (1013 hPa)
ob: LGKR 110420Z /////KT CAVOK 21/14 Q1013 NOSIG
cycle: 4

Station Type Date Time Source
LGKR TAF 2020/07/10 18:12 UTC NOAA

TAF LGKR 101700Z 1018/1118 VRB05KT 9999 FEW025
BECMG 1112/1114 33010KT

Example: see airport list